Погода Навабганйна неделю

Дакка, Бангладеш

26 февраля-03 марта
  • 26февраля
    Сегодня
    +14°
    +24°
    Ясно и безоблачно
    ВремяПогодаТемператураВлажностьДавлениеВетер, м/сВероятность осадков
    00:00Ясно и безоблачно+16°C87 %761 мм2.1 м/с2 %
    03:00Ясно и безоблачно+19°C82 %760 мм0.8 м/с2 %
    06:00Ясно и безоблачно+14°C94 %761 мм1.1 м/с2 %
    09:00Ясно и безоблачно+17°C81 %762 мм0.8 м/с2 %
    12:00Небольшая облачность+22°C57 %762 мм0.9 м/с2 %
    15:00Ясно и безоблачно+24°C47 %759 мм1.4 м/с2 %
    18:00Небольшая облачность+22°C63 %759 мм1.7 м/с2 %
    21:00Небольшая облачность+17°C73 %760 мм2.2 м/с2 %
  • 27февраля
    Вторник
    +15°
    +24°
    Облачно с прояснениями
    ВремяПогодаТемператураВлажностьДавлениеВетер, м/сВероятность осадков
    00:00Облачно с прояснениями+19°C76 %760 мм1.7 м/с2 %
    03:00Облачно с прояснениями+18°C83 %759 мм1.2 м/с2 %
    06:00Облачно с прояснениями+15°C85 %760 мм1.4 м/с2 %
    09:00Облачно с прояснениями+18°C70 %761 мм1.0 м/с2 %
    12:00Облачно с прояснениями+22°C42 %760 мм2.0 м/с2 %
    15:00Облачно с прояснениями+24°C37 %757 мм2.4 м/с2 %
    18:00Небольшая облачность+22°C57 %757 мм1.3 м/с2 %
    21:00Облачно с прояснениями+19°C60 %758 мм1.4 м/с2 %
  • 28февраля
    Среда
    +13°
    +26°
    Ясно и безоблачно
    ВремяПогодаТемператураВлажностьДавлениеВетер, м/сВероятность осадков
    00:00Облачно с прояснениями+21°C64 %758 мм1.4 м/с2 %
    03:00Небольшая облачность+18°C83 %757 мм2.0 м/с2 %
    06:00Ясно и безоблачно+16°C86 %757 мм2.0 м/с2 %
    09:00Ясно и безоблачно+19°C64 %759 мм1.8 м/с2 %
    12:00Ясно и безоблачно+23°C43 %758 мм2.8 м/с2 %
    15:00Ясно и безоблачно+26°C38 %756 мм3.6 м/с2 %
    18:00Ясно и безоблачно+22°C62 %756 мм2.5 м/с2 %
    21:00Ясно и безоблачно+18°C74 %757 мм3.0 м/с2 %
  • 29февраля
    Четверг
    +13°
    +26°
    Ясно и безоблачно
    ВремяПогодаТемператураВлажностьДавлениеВетер, м/сВероятность осадков
    00:00Ясно и безоблачно+20°C70 %757 мм2.3 м/с2 %
    03:00Ясно и безоблачно+17°C80 %757 мм2.4 м/с2 %
    06:00Ясно и безоблачно+14°C89 %758 мм2.5 м/с2 %
    09:00Ясно и безоблачно+19°C63 %760 мм1.0 м/с2 %
    12:00Ясно и безоблачно+23°C45 %760 мм2.1 м/с2 %
    15:00Ясно и безоблачно+25°C40 %757 мм2.4 м/с2 %
    18:00Ясно и безоблачно+24°C53 %757 мм1.2 м/с2 %
    21:00Ясно и безоблачно+21°C62 %759 мм1.3 м/с2 %
  • 01марта
    Пятница
    +16°
    +26°
    Ясно и безоблачно
    ВремяПогодаТемператураВлажностьДавлениеВетер, м/сВероятность осадков
    00:00Ясно и безоблачно+21°C76 %759 мм1.1 м/с2 %
    03:00Ясно и безоблачно+18°C89 %758 мм1.9 м/с2 %
    06:00Ясно и безоблачно+14°C86 %759 мм2.7 м/с2 %
    09:00Ясно и безоблачно+19°C69 %761 мм0.8 м/с2 %
    12:00Ясно и безоблачно+23°C43 %761 мм1.4 м/с2 %
    15:00Ясно и безоблачно+26°C37 %758 мм2.8 м/с2 %
    18:00Ясно и безоблачно+24°C50 %758 мм0.5 м/с2 %
    21:00Ясно и безоблачно+18°C68 %759 мм2.6 м/с2 %
Мы используем cookies
Соглашаюсь